Time;durP1;ratioP1;P1;durP2;ratioP2;P2;SDS_P1;SDS_P2;PMS_P1;PMS_P2;Temp;Humidity;BMP_temperature;BMP_pressure;BME280_temperature;BME280_humidity;BME280_pressure;Samples;Min_cycle;Max_cycle;Signal;HPM_P1;HPM_P2
2023/07/14 00:00:26;;;;;;;4.60;2.42;;;17.50;99.90;;;;;;5052234;28;20185;-30
2023/07/14 00:02:54;;;;;;;3.40;1.97;;;17.50;99.90;;;;;;5051832;28;20268;-29
2023/07/14 00:05:26;;;;;;;4.28;2.30;;;17.50;99.90;;;;;;5034463;28;20182;-28
2023/07/14 00:07:54;;;;;;;4.53;2.35;;;17.50;99.90;;;;;;5035068;28;20210;-30
2023/07/14 00:10:30;;;;;;;3.38;2.13;;;17.50;99.90;;;;;;5056702;28;20211;-29
2023/07/14 00:12:58;;;;;;;4.75;2.40;;;17.60;99.90;;;;;;5036602;28;20194;-29
2023/07/14 00:15:24;;;;;;;3.80;2.33;;;17.60;99.90;;;;;;5047040;28;20204;-28
2023/07/14 00:17:53;;;;;;;3.67;2.42;;;17.50;99.90;;;;;;5059772;28;20216;-29
2023/07/14 00:21:00;;;;;;;6.88;2.40;;;17.50;99.90;;;;;;5050744;28;20174;-32
2023/07/14 00:23:26;;;;;;;4.17;2.50;;;17.40;99.90;;;;;;5033990;28;20221;-28
2023/07/14 00:25:51;;;;;;;2.40;2.07;;;17.30;99.90;;;;;;5051460;28;20269;-29
2023/07/14 00:28:19;;;;;;;3.30;2.40;;;17.20;99.90;;;;;;5051665;28;20255;-29
2023/07/14 00:30:47;;;;;;;2.20;2.00;;;17.10;99.90;;;;;;5036126;28;20189;-29
2023/07/14 00:33:15;;;;;;;3.73;2.30;;;17.00;99.90;;;;;;5051424;28;20272;-28
2023/07/14 00:35:42;;;;;;;3.17;2.50;;;16.90;99.90;;;;;;5059415;28;20272;-29
2023/07/14 00:38:09;;;;;;;6.67;2.33;;;16.90;99.90;;;;;;5031250;28;20217;-29
2023/07/14 00:40:41;;;;;;;4.43;2.60;;;16.80;99.90;;;;;;5052778;28;20176;-29
2023/07/14 00:43:17;;;;;;;3.30;2.20;;;16.80;99.90;;;;;;5063316;28;20196;-29
2023/07/14 00:45:46;;;;;;;3.27;2.37;;;16.80;99.90;;;;;;5034894;28;20242;-28
2023/07/14 00:48:15;;;;;;;2.73;2.40;;;16.80;99.90;;;;;;5050916;28;20193;-29
2023/07/14 00:50:52;;;;;;;4.80;2.57;;;16.70;99.90;;;;;;5050918;28;20200;-29
2023/07/14 00:53:23;;;;;;;3.60;2.27;;;16.80;99.90;;;;;;5051300;28;20259;-28
2023/07/14 00:55:58;;;;;;;3.60;2.20;;;16.70;99.90;;;;;;5043375;28;20182;-29
2023/07/14 00:58:26;;;;;;;3.57;2.30;;;16.70;99.90;;;;;;5050640;28;20189;-28
2023/07/14 01:01:13;;;;;;;2.23;1.87;;;16.60;99.90;;;;;;5034071;28;20182;-28
2023/07/14 01:03:43;;;;;;;4.70;2.30;;;16.50;99.90;;;;;;5049953;28;20170;-29
2023/07/14 01:06:18;;;;;;;4.40;2.50;;;16.40;99.90;;;;;;5033985;28;20186;-29
2023/07/14 01:09:09;;;;;;;2.53;2.07;;;16.40;99.90;;;;;;5050463;28;20205;-29
2023/07/14 01:11:49;;;;;;;4.47;2.10;;;16.40;99.90;;;;;;5051001;28;20178;-29
2023/07/14 01:14:25;;;;;;;4.07;2.57;;;16.30;99.90;;;;;;5042474;28;20300;-28
2023/07/14 01:16:54;;;;;;;2.43;2.20;;;16.40;99.90;;;;;;5050158;28;20233;-30
2023/07/14 01:19:25;;;;;;;4.77;2.50;;;16.30;99.90;;;;;;5050773;28;20210;-28
2023/07/14 01:22:00;;;;;;;3.57;2.37;;;16.30;99.90;;;;;;5028494;28;20189;-28
2023/07/14 01:24:40;;;;;;;3.43;2.40;;;16.20;99.90;;;;;;5059032;28;20181;-29
2023/07/14 01:27:08;;;;;;;2.90;2.23;;;16.20;99.90;;;;;;5057471;28;20209;-28
2023/07/14 01:29:36;;;;;;;3.37;2.40;;;16.10;99.90;;;;;;5058909;28;20201;-29
2023/07/14 01:32:09;;;;;;;4.87;2.67;;;16.10;99.90;;;;;;5050996;28;20174;-28
2023/07/14 01:34:35;;;;;;;7.13;2.97;;;16.10;99.90;;;;;;5065515;28;20196;-28
2023/07/14 01:37:01;;;;;;;3.50;2.60;;;16.10;99.90;;;;;;5043513;28;20289;-30
2023/07/14 01:39:29;;;;;;;4.63;2.50;;;16.10;99.90;;;;;;5048327;28;20268;-29
2023/07/14 01:41:54;;;;;;;3.00;2.70;;;16.10;99.90;;;;;;5062648;28;20192;-29
2023/07/14 01:44:22;;;;;;;3.97;2.53;;;16.10;99.90;;;;;;5055213;28;20182;-29
2023/07/14 01:46:48;;;;;;;3.57;2.60;;;16.00;99.90;;;;;;5044919;28;20221;-29
2023/07/14 01:49:27;;;;;;;3.93;2.77;;;15.90;99.90;;;;;;5058954;28;20300;-27
2023/07/14 01:51:57;;;;;;;3.33;2.53;;;15.90;99.90;;;;;;5034857;28;20182;-29
2023/07/14 01:54:35;;;;;;;2.63;2.40;;;15.80;99.90;;;;;;5034447;28;20182;-29
2023/07/14 01:57:17;;;;;;;3.27;2.57;;;15.80;99.90;;;;;;5038879;28;20212;-29
2023/07/14 01:59:51;;;;;;;4.17;2.70;;;15.80;99.90;;;;;;5049253;28;20185;-30
2023/07/14 02:02:25;;;;;;;4.00;2.40;;;15.80;99.90;;;;;;5037528;28;20185;-30
2023/07/14 02:04:52;;;;;;;6.93;2.77;;;15.80;99.90;;;;;;5053606;28;20181;-30
2023/07/14 02:07:18;;;;;;;3.07;2.50;;;15.80;99.90;;;;;;5044941;28;20174;-28
2023/07/14 02:09:45;;;;;;;4.83;2.73;;;15.80;99.90;;;;;;5057764;28;20178;-29
2023/07/14 02:12:31;;;;;;;3.63;2.60;;;15.80;99.90;;;;;;5044989;28;20184;-29
2023/07/14 02:15:04;;;;;;;3.00;2.60;;;15.80;99.90;;;;;;5045392;28;20198;-29
2023/07/14 02:17:33;;;;;;;3.80;2.70;;;15.60;99.90;;;;;;5049218;28;20237;-28
2023/07/14 02:20:06;;;;;;;3.80;2.50;;;15.50;99.90;;;;;;5032330;28;20201;-29
2023/07/14 02:22:34;;;;;;;4.23;2.43;;;15.40;99.90;;;;;;5040060;28;20178;-28
2023/07/14 02:25:03;;;;;;;5.30;2.60;;;15.40;99.90;;;;;;5054337;28;20208;-29
2023/07/14 02:27:29;;;;;;;4.43;2.70;;;15.40;99.90;;;;;;5044126;28;20186;-29
2023/07/14 02:30:09;;;;;;;3.50;2.80;;;15.40;99.90;;;;;;5049976;28;20197;-29
2023/07/14 02:32:40;;;;;;;3.23;2.30;;;15.40;99.90;;;;;;5047441;28;20182;-28
2023/07/14 02:35:33;;;;;;;5.50;2.50;;;15.40;99.90;;;;;;5057946;28;20189;-29
2023/07/14 02:38:03;;;;;;;3.63;2.53;;;15.40;99.90;;;;;;5032659;28;20228;-28
2023/07/14 02:40:39;;;;;;;2.80;2.40;;;15.40;99.90;;;;;;5033448;28;20178;-28
2023/07/14 02:43:13;;;;;;;3.80;2.60;;;15.30;99.90;;;;;;5031873;28;20178;-27
2023/07/14 02:45:57;;;;;;;3.83;3.10;;;15.30;99.90;;;;;;5033017;28;20174;-28
2023/07/14 02:48:36;;;;;;;3.83;2.70;;;15.40;99.90;;;;;;5035298;28;20202;-28
2023/07/14 02:51:02;;;;;;;4.20;2.80;;;15.40;99.90;;;;;;5034749;28;20196;-28
2023/07/14 02:53:28;;;;;;;3.33;2.87;;;15.40;99.90;;;;;;5049380;28;20248;-32
2023/07/14 02:55:54;;;;;;;4.40;2.77;;;15.40;99.90;;;;;;5032793;28;20209;-28
2023/07/14 02:58:20;;;;;;;5.97;2.93;;;15.40;99.90;;;;;;5037615;28;20202;-28
2023/07/14 03:00:46;;;;;;;3.27;2.97;;;15.40;99.90;;;;;;5057440;28;20276;-28
2023/07/14 03:03:12;;;;;;;4.23;2.73;;;15.40;99.90;;;;;;5050391;28;20190;-30
2023/07/14 03:05:38;;;;;;;5.90;3.07;;;15.30;99.90;;;;;;5041007;28;20189;-28
2023/07/14 03:08:07;;;;;;;3.57;3.07;;;15.30;99.90;;;;;;5040723;28;20219;-28
2023/07/14 03:10:33;;;;;;;3.97;2.80;;;15.30;99.90;;;;;;5040859;28;20671;-29
2023/07/14 03:12:59;;;;;;;4.30;2.87;;;15.20;99.90;;;;;;5051645;28;20184;-32
2023/07/14 03:15:25;;;;;;;4.10;2.83;;;15.20;99.90;;;;;;5052693;28;20186;-29
2023/07/14 03:17:51;;;;;;;3.67;2.90;;;15.10;99.90;;;;;;5048274;28;20202;-29
2023/07/14 03:20:17;;;;;;;7.43;2.87;;;15.10;99.90;;;;;;5055609;28;20189;-28
2023/07/14 03:22:43;;;;;;;6.00;3.10;;;15.10;99.90;;;;;;5034850;28;20193;-28
2023/07/14 03:25:09;;;;;;;4.70;3.30;;;15.10;99.90;;;;;;5033427;28;20186;-28
2023/07/14 03:27:36;;;;;;;4.20;3.20;;;15.10;99.90;;;;;;5063110;28;20282;-28
2023/07/14 03:30:02;;;;;;;3.40;3.00;;;15.10;99.90;;;;;;5030554;28;20237;-27
2023/07/14 03:32:28;;;;;;;4.13;2.80;;;15.10;99.90;;;;;;5052527;28;20179;-29
2023/07/14 03:34:54;;;;;;;3.83;3.00;;;15.10;99.90;;;;;;5056561;28;20189;-28
2023/07/14 03:37:20;;;;;;;3.93;3.30;;;15.10;99.90;;;;;;5052671;28;20256;-29
2023/07/14 03:39:46;;;;;;;4.67;3.30;;;15.10;99.90;;;;;;5052975;28;20182;-29
2023/07/14 03:42:11;;;;;;;5.47;3.27;;;15.00;99.90;;;;;;5041565;28;20181;-28
2023/07/14 03:44:37;;;;;;;3.30;2.70;;;15.00;99.90;;;;;;5055780;28;20265;-28
2023/07/14 03:47:03;;;;;;;3.87;2.60;;;14.90;99.90;;;;;;5051659;28;20218;-28
2023/07/14 03:49:30;;;;;;;3.77;2.90;;;14.80;99.90;;;;;;5046678;28;20209;-30
2023/07/14 03:51:56;;;;;;;5.17;3.27;;;14.80;99.90;;;;;;5052498;28;20253;-27
2023/07/14 03:54:22;;;;;;;3.67;3.10;;;14.60;99.90;;;;;;5043723;28;20274;-28
2023/07/14 03:56:48;;;;;;;3.80;3.17;;;14.60;99.90;;;;;;5052760;28;20185;-28
2023/07/14 03:59:13;;;;;;;4.70;2.90;;;14.40;99.90;;;;;;5045099;28;20208;-29
2023/07/14 04:01:39;;;;;;;4.90;3.20;;;14.30;99.90;;;;;;5040281;28;20675;-29
2023/07/14 04:04:06;;;;;;;3.47;3.17;;;14.20;99.90;;;;;;5036986;28;20193;-29
2023/07/14 04:06:32;;;;;;;4.83;3.10;;;14.20;99.90;;;;;;5054940;28;20209;-29
2023/07/14 04:09:00;;;;;;;5.87;3.33;;;14.20;99.90;;;;;;5050653;28;20216;-29
2023/07/14 04:11:33;;;;;;;5.90;3.10;;;14.20;99.90;;;;;;5042941;28;20262;-27
2023/07/14 04:13:58;;;;;;;5.67;3.57;;;14.30;99.90;;;;;;5048379;28;20637;-28
2023/07/14 04:16:24;;;;;;;4.87;3.50;;;14.40;99.90;;;;;;5061610;28;20193;-29
2023/07/14 04:18:50;;;;;;;6.40;3.43;;;14.50;99.90;;;;;;5057222;28;20300;-29
2023/07/14 04:21:16;;;;;;;5.87;3.30;;;14.50;99.90;;;;;;5059937;28;20182;-28
2023/07/14 04:23:42;;;;;;;5.57;3.30;;;14.60;99.90;;;;;;5053292;28;20185;-27
2023/07/14 04:26:12;;;;;;;5.73;3.27;;;14.70;99.90;;;;;;5034241;28;20221;-26
2023/07/14 04:28:38;;;;;;;4.63;3.40;;;14.80;99.90;;;;;;5050583;28;20205;-28
2023/07/14 04:31:05;;;;;;;6.40;3.43;;;14.90;99.90;;;;;;5051976;28;20186;-27
2023/07/14 04:33:32;;;;;;;4.40;2.97;;;14.90;99.90;;;;;;5059128;28;20197;-28
2023/07/14 04:35:59;;;;;;;5.43;3.23;;;15.00;99.90;;;;;;5045381;28;20182;-28
2023/07/14 04:38:25;;;;;;;3.87;3.07;;;15.10;99.90;;;;;;5059180;28;20208;-28
2023/07/14 04:40:52;;;;;;;3.80;2.80;;;15.10;99.90;;;;;;5046665;28;20204;-28
2023/07/14 04:43:18;;;;;;;4.73;2.87;;;15.20;99.90;;;;;;5048583;28;20189;-29
2023/07/14 04:45:45;;;;;;;5.03;3.43;;;15.30;99.90;;;;;;5054880;28;20177;-29
2023/07/14 04:48:18;;;;;;;5.47;3.47;;;15.40;99.90;;;;;;5040258;28;20206;-29
2023/07/14 04:50:47;;;;;;;3.87;2.73;;;15.40;99.90;;;;;;5055821;28;20185;-28
2023/07/14 04:53:15;;;;;;;5.13;3.23;;;15.40;99.90;;;;;;5065847;28;20182;-28
2023/07/14 04:55:45;;;;;;;4.40;3.50;;;15.40;99.90;;;;;;5065627;28;20209;-28
2023/07/14 04:58:14;;;;;;;5.03;3.60;;;15.40;99.90;;;;;;5041412;28;20295;-28
2023/07/14 05:00:44;;;;;;;7.47;3.80;;;15.50;99.90;;;;;;5058550;28;20233;-29
2023/07/14 05:03:10;;;;;;;5.83;3.50;;;15.50;99.90;;;;;;5039472;28;20178;-29
2023/07/14 05:05:39;;;;;;;7.97;4.00;;;15.60;99.90;;;;;;5048290;28;20182;-29
2023/07/14 05:08:05;;;;;;;3.93;3.50;;;15.60;99.90;;;;;;5049306;28;20213;-28
2023/07/14 05:10:32;;;;;;;5.97;3.40;;;15.60;99.90;;;;;;5041352;28;20296;-31
2023/07/14 05:12:58;;;;;;;8.07;3.40;;;15.70;99.90;;;;;;5039800;28;20171;-29
2023/07/14 05:15:25;;;;;;;7.07;3.73;;;15.70;99.90;;;;;;5044800;28;20243;-30
2023/07/14 05:17:52;;;;;;;6.57;3.53;;;15.80;99.90;;;;;;5043055;28;20237;-29
2023/07/14 05:20:19;;;;;;;6.47;3.80;;;15.80;99.90;;;;;;5042875;28;20641;-29
2023/07/14 05:22:48;;;;;;;6.87;3.83;;;15.90;99.90;;;;;;5056552;28;20236;-30
2023/07/14 05:25:15;;;;;;;5.80;3.47;;;15.90;99.90;;;;;;5050503;28;20195;-30
2023/07/14 05:27:43;;;;;;;7.00;3.60;;;15.90;99.90;;;;;;5048967;28;20213;-30
2023/07/14 05:30:14;;;;;;;6.03;3.67;;;15.90;99.90;;;;;;5032780;28;20193;-29
2023/07/14 05:32:44;;;;;;;7.60;3.60;;;16.00;99.90;;;;;;5060531;28;20174;-30
2023/07/14 05:35:11;;;;;;;4.30;3.40;;;16.10;99.90;;;;;;5047360;28;20182;-29
2023/07/14 05:37:41;;;;;;;5.77;3.70;;;16.20;99.90;;;;;;5049535;28;20198;-29
2023/07/14 05:40:10;;;;;;;5.63;3.30;;;16.20;99.90;;;;;;5055387;28;20189;-29
2023/07/14 05:42:39;;;;;;;5.97;3.37;;;16.20;99.90;;;;;;5045123;28;20292;-29
2023/07/14 05:45:07;;;;;;;4.77;2.90;;;16.30;99.90;;;;;;5044867;28;20194;-29
2023/07/14 05:47:38;;;;;;;4.67;3.40;;;16.30;99.90;;;;;;5065871;28;20196;-29
2023/07/14 05:50:07;;;;;;;6.17;3.60;;;16.30;99.90;;;;;;5042116;28;20228;-29
2023/07/14 05:52:34;;;;;;;6.10;4.07;;;16.30;99.90;;;;;;5076308;28;20213;-30
2023/07/14 05:55:00;;;;;;;5.97;3.63;;;16.20;99.90;;;;;;5049032;28;20262;-30
2023/07/14 05:57:26;;;;;;;6.33;3.73;;;16.30;99.90;;;;;;5032094;28;20182;-29
2023/07/14 05:59:52;;;;;;;5.97;4.00;;;16.30;99.90;;;;;;5066057;28;20185;-29
2023/07/14 06:02:18;;;;;;;3.60;3.10;;;16.40;99.90;;;;;;5050917;28;20284;-30
2023/07/14 06:04:45;;;;;;;6.20;3.30;;;16.60;99.90;;;;;;5047428;28;20192;-29
2023/07/14 06:07:13;;;;;;;5.00;3.17;;;16.70;99.90;;;;;;5059151;28;20205;-29
2023/07/14 06:09:40;;;;;;;7.40;3.37;;;16.90;99.90;;;;;;5038742;28;20263;-29
2023/07/14 06:12:08;;;;;;;6.67;3.40;;;17.00;99.90;;;;;;5033749;28;20185;-28
2023/07/14 06:14:37;;;;;;;9.60;3.83;;;17.10;99.90;;;;;;5053078;28;20190;-29
2023/07/14 06:17:04;;;;;;;6.27;3.70;;;17.20;99.90;;;;;;5050237;28;20189;-30
2023/07/14 06:19:31;;;;;;;6.20;3.37;;;17.40;99.90;;;;;;5045355;28;20204;-29
2023/07/14 06:21:57;;;;;;;5.85;3.38;;;17.60;99.90;;;;;;5037751;28;20186;-30
2023/07/14 06:24:24;;;;;;;7.47;3.33;;;17.60;99.90;;;;;;5035527;28;20273;-30
2023/07/14 06:26:51;;;;;;;5.25;3.30;;;17.80;99.90;;;;;;5054064;28;20254;-29
2023/07/14 06:29:18;;;;;;;5.53;3.30;;;17.90;99.90;;;;;;5038694;28;20196;-29
2023/07/14 06:31:44;;;;;;;4.18;2.92;;;18.10;99.90;;;;;;5067272;28;20209;-29
2023/07/14 06:34:10;;;;;;;6.75;3.30;;;18.30;99.90;;;;;;5052074;28;20173;-31
2023/07/14 06:36:36;;;;;;;4.75;3.20;;;18.60;99.90;;;;;;5036438;28;20182;-28
2023/07/14 06:39:04;;;;;;;5.93;2.97;;;18.70;99.90;;;;;;5042434;28;20208;-30
2023/07/14 06:41:30;;;;;;;5.32;3.03;;;18.90;99.90;;;;;;5037317;28;20186;-30
2023/07/14 06:43:56;;;;;;;4.82;3.28;;;19.00;99.90;;;;;;5040810;28;20189;-30
2023/07/14 06:46:22;;;;;;;6.43;2.95;;;19.20;99.90;;;;;;5039093;28;20217;-30
2023/07/14 06:48:48;;;;;;;4.85;2.95;;;19.20;99.90;;;;;;5071869;28;20208;-30
2023/07/14 06:51:14;;;;;;;6.18;2.90;;;19.40;99.90;;;;;;5047594;28;20249;-29
2023/07/14 06:53:40;;;;;;;4.78;2.85;;;19.40;99.90;;;;;;5047829;28;20204;-30
2023/07/14 06:56:07;;;;;;;3.60;2.90;;;19.50;99.90;;;;;;5042977;28;20169;-30
2023/07/14 06:58:34;;;;;;;5.63;2.70;;;19.60;99.90;;;;;;5037128;28;20255;-31
2023/07/14 07:01:00;;;;;;;5.22;2.60;;;19.70;99.90;;;;;;5057328;28;20252;-30
2023/07/14 07:03:27;;;;;;;5.20;2.72;;;19.80;99.90;;;;;;5055182;28;20182;-31
2023/07/14 07:05:53;;;;;;;6.45;2.80;;;19.90;99.90;;;;;;5036713;28;20186;-30
2023/07/14 07:08:19;;;;;;;5.28;3.20;;;20.10;99.90;;;;;;5049567;28;20201;-30
2023/07/14 07:10:45;;;;;;;7.53;3.03;;;20.10;99.90;;;;;;5055200;28;20181;-30
2023/07/14 07:13:12;;;;;;;5.40;2.45;;;20.20;99.90;;;;;;5035670;28;20182;-30
2023/07/14 07:15:41;;;;;;;4.85;2.22;;;20.30;99.90;;;;;;5054342;28;20193;-30
2023/07/14 07:18:08;;;;;;;4.13;2.50;;;20.50;99.90;;;;;;5045631;28;20229;-30
2023/07/14 07:20:40;;;;;;;3.78;2.67;;;20.70;99.90;;;;;;5046057;28;20182;-30
2023/07/14 07:23:06;;;;;;;5.13;2.50;;;20.70;99.90;;;;;;5043193;28;20276;-31
2023/07/14 07:25:32;;;;;;;5.82;2.42;;;20.80;99.90;;;;;;5039094;28;20312;-32
2023/07/14 07:27:58;;;;;;;4.75;2.28;;;21.00;99.90;;;;;;5039896;28;20264;-30
2023/07/14 07:30:25;;;;;;;4.15;1.95;;;21.20;99.90;;;;;;5066504;28;20209;-29
2023/07/14 07:32:51;;;;;;;3.55;2.17;;;21.50;99.90;;;;;;5046006;28;20173;-30
2023/07/14 07:35:21;;;;;;;5.20;2.05;;;21.70;99.90;;;;;;5047695;28;20178;-30
2023/07/14 07:37:48;;;;;;;3.40;2.40;;;22.00;99.90;;;;;;5051781;28;20260;-30
2023/07/14 07:40:15;;;;;;;3.60;2.22;;;22.10;99.90;;;;;;5052307;28;20181;-30
2023/07/14 07:42:42;;;;;;;3.15;2.08;;;22.30;99.90;;;;;;5056311;28;20190;-30
2023/07/14 07:45:10;;;;;;;4.13;2.15;;;22.40;99.90;;;;;;5052487;28;20182;-30
2023/07/14 07:47:36;;;;;;;5.93;2.05;;;22.60;99.90;;;;;;5050488;28;20247;-31
2023/07/14 07:50:05;;;;;;;3.42;2.03;;;22.70;99.90;;;;;;5036830;28;20190;-30
2023/07/14 07:52:36;;;;;;;5.28;2.50;;;22.80;99.90;;;;;;5047351;28;20239;-32
2023/07/14 07:55:02;;;;;;;4.30;2.30;;;23.00;99.90;;;;;;5044728;28;20182;-31
2023/07/14 07:57:28;;;;;;;3.28;2.00;;;23.20;99.90;;;;;;5035336;28;20272;-31
2023/07/14 07:59:56;;;;;;;3.00;2.00;;;23.30;99.90;;;;;;5037649;28;20192;-31
2023/07/14 08:02:22;;;;;;;3.40;2.08;;;23.30;99.90;;;;;;5058291;28;20174;-30
2023/07/14 08:04:51;;;;;;;3.83;2.10;;;23.40;99.90;;;;;;5053119;28;20182;-31
2023/07/14 08:07:17;;;;;;;6.25;1.90;;;23.60;99.90;;;;;;5037846;28;20202;-31
2023/07/14 08:09:43;;;;;;;4.78;2.10;;;23.70;99.90;;;;;;5079098;28;20189;-29
2023/07/14 08:12:09;;;;;;;4.13;2.10;;;23.90;99.90;;;;;;5063169;28;20205;-31
2023/07/14 08:14:54;;;;;;;3.60;2.40;;;23.70;99.90;;;;;;5039645;28;20190;-30
2023/07/14 08:17:25;;;;;;;3.40;2.00;;;23.70;99.90;;;;;;5051111;28;20177;-31
2023/07/14 08:19:52;;;;;;;7.88;1.90;;;23.80;99.90;;;;;;5051526;28;20231;-31
2023/07/14 08:22:22;;;;;;;3.40;2.30;;;23.90;99.90;;;;;;5052935;28;20292;-30
2023/07/14 08:24:47;;;;;;;3.33;1.98;;;24.10;99.90;;;;;;5034715;28;20186;-31
2023/07/14 08:27:16;;;;;;;3.40;1.80;;;24.20;99.90;;;;;;5045539;28;20213;-31
2023/07/14 08:29:44;;;;;;;3.90;1.88;;;24.20;99.90;;;;;;5043249;28;20205;-29
2023/07/14 08:32:15;;;;;;;2.65;1.90;;;24.20;99.90;;;;;;5035852;28;20182;-30
2023/07/14 08:34:43;;;;;;;4.18;1.88;;;24.40;99.90;;;;;;5043846;28;20265;-32
2023/07/14 08:37:14;;;;;;;2.95;1.77;;;24.50;99.90;;;;;;5054996;28;20184;-30
2023/07/14 08:39:40;;;;;;;4.13;1.92;;;24.60;99.90;;;;;;5049780;28;20680;-30
2023/07/14 08:42:37;;;;;;;3.60;1.75;;;24.70;99.90;;;;;;5060420;28;20269;-30
2023/07/14 08:45:24;;;;;;;4.07;1.80;;;24.90;99.90;;;;;;5043013;28;20201;-30
2023/07/14 08:47:56;;;;;;;2.42;1.83;;;25.10;99.90;;;;;;5058818;28;20280;-31
2023/07/14 08:50:28;;;;;;;3.47;2.00;;;25.20;99.90;;;;;;5068264;28;20178;-30
2023/07/14 08:53:03;;;;;;;2.50;1.70;;;25.20;99.90;;;;;;5053617;28;20186;-30
2023/07/14 08:55:37;;;;;;;4.20;1.88;;;25.10;99.90;;;;;;5052138;28;20261;-31
2023/07/14 08:58:31;;;;;;;3.13;2.13;;;25.20;99.90;;;;;;5036424;28;20236;-31
2023/07/14 09:01:18;;;;;;;3.72;1.90;;;25.40;99.90;;;;;;5060642;28;20193;-31
2023/07/14 09:03:48;;;;;;;3.38;2.03;;;25.40;99.90;;;;;;5038573;28;20206;-31
2023/07/14 09:06:34;;;;;;;4.53;2.08;;;25.50;99.90;;;;;;5026449;28;20223;-31
2023/07/14 09:09:00;;;;;;;4.28;2.10;;;25.60;99.90;;;;;;5041293;28;20266;-31
2023/07/14 09:11:30;;;;;;;3.40;2.20;;;25.70;99.90;;;;;;5041163;28;20192;-31
2023/07/14 09:14:09;;;;;;;2.22;1.83;;;25.70;99.90;;;;;;5059339;28;20260;-30
2023/07/14 09:16:45;;;;;;;2.90;2.00;;;26.00;99.90;;;;;;5033958;28;20197;-31
2023/07/14 09:19:27;;;;;;;5.00;2.13;;;25.80;99.90;;;;;;5053759;28;20233;-31
2023/07/14 09:22:05;;;;;;;2.92;1.83;;;26.10;99.90;;;;;;5040524;28;20190;-31
2023/07/14 09:24:59;;;;;;;3.70;2.03;;;26.30;99.90;;;;;;5058337;28;20216;-31
2023/07/14 09:27:28;;;;;;;2.83;1.80;;;26.60;99.90;;;;;;5047532;28;20218;-31
2023/07/14 09:29:57;;;;;;;5.30;2.20;;;26.80;99.90;;;;;;5057050;28;20186;-30
2023/07/14 09:32:39;;;;;;;3.70;2.08;;;26.80;99.90;;;;;;5044285;28;20184;-31
2023/07/14 09:35:12;;;;;;;5.18;1.90;;;26.80;99.90;;;;;;5035432;28;20198;-31
2023/07/14 09:37:54;;;;;;;3.17;1.75;;;26.60;99.90;;;;;;5058433;28;20205;-31
2023/07/14 09:40:24;;;;;;;2.55;1.85;;;26.60;99.90;;;;;;5050174;28;20178;-31
2023/07/14 09:42:58;;;;;;;3.50;1.70;;;26.70;99.90;;;;;;5056672;28;20186;-32
2023/07/14 09:45:31;;;;;;;3.78;1.92;;;26.70;99.90;;;;;;5056435;28;20220;-31
2023/07/14 09:48:19;;;;;;;3.08;1.88;;;26.60;99.90;;;;;;5036863;28;20210;-31
2023/07/14 09:51:02;;;;;;;3.85;1.90;;;26.70;99.90;;;;;;5044836;28;20193;-31
2023/07/14 09:53:31;;;;;;;3.17;1.95;;;26.70;99.90;;;;;;5035680;28;20205;-31
2023/07/14 09:56:12;;;;;;;2.83;1.92;;;26.60;99.90;;;;;;5058478;28;20212;-32
2023/07/14 09:58:50;;;;;;;3.38;1.90;;;26.70;99.90;;;;;;5046327;28;20221;-31
2023/07/14 10:01:15;;;;;;;3.15;1.90;;;26.60;99.90;;;;;;5066250;28;20267;-31
2023/07/14 10:03:47;;;;;;;3.50;1.92;;;26.60;99.90;;;;;;5050055;28;20282;-31
2023/07/14 10:06:22;;;;;;;3.00;1.70;;;26.70;99.90;;;;;;5023452;28;20193;-32
2023/07/14 10:08:57;;;;;;;2.50;1.85;;;26.80;99.90;;;;;;5058751;28;20254;-32
2023/07/14 10:11:26;;;;;;;3.80;1.90;;;26.80;99.90;;;;;;5042377;28;20178;-31
2023/07/14 10:14:28;;;;;;;3.20;1.90;;;26.90;99.90;;;;;;5057145;28;20240;-32
2023/07/14 10:16:56;;;;;;;3.17;1.80;;;27.00;99.90;;;;;;5039778;28;20181;-30
2023/07/14 10:19:40;;;;;;;2.97;1.80;;;27.10;99.90;;;;;;5042365;28;20284;-32
2023/07/14 10:22:18;;;;;;;2.63;2.05;;;26.90;99.90;;;;;;5043396;28;20190;-32
2023/07/14 10:24:55;;;;;;;1.95;1.80;;;27.00;99.90;;;;;;5058159;28;20177;-31
2023/07/14 10:27:25;;;;;;;5.07;1.90;;;27.20;99.90;;;;;;5059722;28;20215;-31
2023/07/14 10:30:07;;;;;;;3.45;2.00;;;27.30;99.90;;;;;;5058185;28;20181;-30
2023/07/14 10:32:57;;;;;;;2.75;1.98;;;27.30;99.90;;;;;;5050163;28;20259;-31
2023/07/14 10:35:28;;;;;;;2.50;1.80;;;27.20;99.90;;;;;;5031984;28;20228;-32
2023/07/14 10:38:02;;;;;;;3.63;1.83;;;27.10;99.90;;;;;;5045164;28;20213;-31
2023/07/14 10:40:34;;;;;;;2.75;1.90;;;27.30;99.90;;;;;;5055219;28;20181;-31
2023/07/14 10:43:17;;;;;;;3.53;1.70;;;27.30;99.90;;;;;;5056434;28;20212;-31
2023/07/14 10:46:15;;;;;;;3.72;1.80;;;27.40;99.90;;;;;;5057388;28;20181;-31
2023/07/14 10:49:07;;;;;;;3.33;2.00;;;27.30;99.90;;;;;;5044092;28;20216;-29
2023/07/14 10:51:59;;;;;;;3.72;1.90;;;27.40;99.90;;;;;;5059894;28;20323;-29
2023/07/14 10:54:36;;;;;;;2.50;1.42;;;27.60;99.90;;;;;;5048314;28;20652;-31
2023/07/14 10:57:24;;;;;;;2.63;2.08;;;27.70;99.90;;;;;;5039184;28;20178;-29
2023/07/14 11:00:07;;;;;;;3.10;1.67;;;27.60;99.90;;;;;;5048159;28;20197;-30
2023/07/14 11:02:45;;;;;;;2.80;1.80;;;27.50;99.90;;;;;;5035081;28;20181;-31
2023/07/14 11:05:16;;;;;;;2.10;1.80;;;27.50;99.90;;;;;;5055472;28;20185;-30
2023/07/14 11:07:42;;;;;;;3.17;1.70;;;27.50;99.90;;;;;;5035478;28;20213;-31
2023/07/14 11:10:33;;;;;;;3.55;1.63;;;27.50;99.90;;;;;;5057046;28;20181;-30
2023/07/14 11:13:40;;;;;;;4.72;2.08;;;27.50;99.90;;;;;;5047731;28;20276;-30
2023/07/14 11:16:16;;;;;;;2.35;1.80;;;27.60;99.90;;;;;;5050053;28;20245;-31
2023/07/14 11:18:52;;;;;;;3.58;2.22;;;27.60;99.90;;;;;;5048938;28;20204;-31
2023/07/14 11:21:41;;;;;;;2.88;1.65;;;27.80;99.90;;;;;;5042960;28;20189;-29
2023/07/14 11:24:39;;;;;;;2.30;1.90;;;27.50;99.90;;;;;;5040887;28;20251;-31
2023/07/14 11:27:33;;;;;;;3.72;1.77;;;27.70;99.90;;;;;;5041365;28;20218;-30
2023/07/14 11:30:17;;;;;;;2.55;2.00;;;27.80;99.90;;;;;;5054551;28;20166;-31
2023/07/14 11:33:05;;;;;;;3.72;1.80;;;27.90;99.90;;;;;;5042164;28;20230;-31
2023/07/14 11:35:34;;;;;;;3.40;1.70;;;27.90;99.90;;;;;;5060647;28;20170;-29
2023/07/14 11:38:33;;;;;;;2.70;2.10;;;28.00;99.90;;;;;;5040603;28;20259;-29
2023/07/14 11:41:00;;;;;;;3.67;1.75;;;28.10;99.90;;;;;;5043708;28;20185;-31
2023/07/14 11:43:31;;;;;;;3.15;1.80;;;28.20;99.90;;;;;;5029402;28;20658;-31
2023/07/14 11:46:06;;;;;;;2.22;1.65;;;28.30;99.90;;;;;;5048910;28;20189;-31
2023/07/14 11:48:38;;;;;;;3.22;1.67;;;28.50;99.90;;;;;;5057596;28;20223;-31
2023/07/14 11:51:08;;;;;;;4.43;2.05;;;28.40;99.90;;;;;;5055387;28;20185;-29
2023/07/14 11:53:35;;;;;;;3.63;1.83;;;28.20;99.90;;;;;;5033024;28;20220;-30
2023/07/14 11:56:38;;;;;;;2.40;1.88;;;28.10;99.90;;;;;;5050665;28;20641;-30
2023/07/14 11:59:22;;;;;;;3.22;2.03;;;28.30;99.90;;;;;;5000577;28;20235;-31
2023/07/14 12:01:54;;;;;;;3.60;1.70;;;28.40;99.90;;;;;;5047844;28;20190;-30
2023/07/14 12:04:26;;;;;;;2.22;1.80;;;28.30;99.90;;;;;;5051167;28;20260;-30
2023/07/14 12:07:12;;;;;;;4.32;1.88;;;28.40;99.90;;;;;;5034527;28;20210;-31
2023/07/14 12:10:00;;;;;;;1.90;1.80;;;28.50;99.80;;;;;;5046120;28;20205;-30
2023/07/14 12:12:27;;;;;;;2.60;2.00;;;28.50;99.90;;;;;;5044084;28;20182;-30
2023/07/14 12:14:53;;;;;;;3.53;1.80;;;28.10;99.90;;;;;;5063089;28;20208;-30
2023/07/14 12:17:38;;;;;;;2.92;2.00;;;28.00;99.90;;;;;;5034046;28;20174;-30
2023/07/14 12:20:32;;;;;;;2.45;2.03;;;28.00;99.90;;;;;;5051953;28;20208;-30
2023/07/14 12:23:09;;;;;;;3.50;1.83;;;28.30;99.90;;;;;;5040939;28;20196;-31
2023/07/14 12:25:41;;;;;;;4.72;2.30;;;28.60;99.90;;;;;;5036512;28;20235;-33
2023/07/14 12:28:15;;;;;;;2.45;2.00;;;28.80;99.80;;;;;;5061756;28;20216;-29
2023/07/14 12:30:49;;;;;;;2.00;1.60;;;28.60;99.80;;;;;;5038676;28;20227;-30
2023/07/14 12:33:17;;;;;;;3.55;2.00;;;28.60;99.90;;;;;;5034871;28;20182;-31
2023/07/14 12:35:43;;;;;;;3.05;2.08;;;28.90;99.90;;;;;;5050837;28;20193;-31
2023/07/14 12:38:43;;;;;;;3.80;2.03;;;29.20;99.90;;;;;;5049992;28;20217;-30
2023/07/14 12:41:10;;;;;;;2.40;1.80;;;29.70;99.30;;;;;;5048739;28;20182;-30
2023/07/14 12:43:43;;;;;;;2.42;1.75;;;29.80;97.90;;;;;;5032030;28;20189;-29
2023/07/14 12:46:22;;;;;;;4.97;1.80;;;30.00;99.00;;;;;;5075030;28;20196;-30
2023/07/14 12:48:49;;;;;;;5.15;1.88;;;30.10;98.10;;;;;;5076124;28;20197;-31
2023/07/14 12:51:21;;;;;;;4.85;1.65;;;30.40;98.40;;;;;;5039695;28;20185;-31
2023/07/14 12:53:59;;;;;;;6.32;2.00;;;30.80;97.60;;;;;;5063322;28;20178;-32
2023/07/14 12:56:28;;;;;;;3.13;1.60;;;30.90;95.60;;;;;;5050209;28;20503;-32
2023/07/14 12:58:55;;;;;;;2.75;1.70;;;30.80;95.40;;;;;;5035956;28;20206;-31
2023/07/14 13:01:21;;;;;;;3.28;1.92;;;30.90;95.20;;;;;;5062254;28;20184;-30
2023/07/14 13:03:46;;;;;;;3.30;1.80;;;31.20;95.40;;;;;;5061687;28;20185;-31
2023/07/14 13:06:17;;;;;;;3.75;1.70;;;31.20;95.40;;;;;;5052218;28;20242;-31
2023/07/14 13:08:49;;;;;;;2.15;1.88;;;31.20;95.70;;;;;;5050981;28;20206;-32
2023/07/14 13:11:21;;;;;;;3.22;1.90;;;31.10;94.80;;;;;;5055320;28;20213;-31